Aérodrome :
LOGIN :

S'inscrire | Disclaimer

   EN    FR    IT 

 










Légende :    VFR   VFR Marginal   IFR   IFR Intensif   IFR Très Intensif
Visi : 
Plafond : 
>= 8 km
>= 3000ft
5 à 8 km
1000 à 3000 ft
1500m à 5 km
500 à 1000 ft
800 à 1500m
200 à 500 ft
< 800m
< 200 ft
Symboles :   Orages  Brouillard  Fortes neiges  Fortes précipitations  Vent > 20 kt
SIGMETs :   Divers  Orages  Givrage  Turbulence  Onde Orograph.  Cendres Volcan.







- Altitude de l'aérodrome : 1487 ft
- Code IATA : MUC


EDDM - München Franz Josef Strauss

DERNIER METAR :
  • 251950Z 35005KT 320V020 9999 -RA FEW007 SCT013 OVC025 07/06 Q1008 TEMPO 4000 RA BKN010

METARs EXPIRÉS :
  • 251920Z 35005KT 310V020 9999 -RA FEW007 SCT010 BKN025 07/06 Q1008 TEMPO 4000 RA BKN010
  • 251850Z 33010KT 9000 -RA FEW005 SCT010 OVC040 08/07 Q1008 TEMPO 4000 RA BKN010
  • 251820Z 31006KT 9000 -RA FEW006 SCT022 BKN040 09/08 Q1008 TEMPO 4000 RA
  • 251750Z VRB01KT 6000 -RA FEW015 SCT025 BKN035 09/08 Q1007 RERA TEMPO 4000 RA

TAF TAF EDDM
Valide du 25 à 18h jusqu'au 27 à 00h UTC


251700Z 2518/2624 34005KT 7000 SCT012 BKN030
BECMG 2518/2520 RA BKN010
TEMPO 2520/2605 4000 RADZ BKN004
TEMPO 2605/2608 2000 RASN BKN004
BECMG 2608/2610 NSW BKN015
TEMPO 2610/2620 RA
BECMG 2620/2622 BKN012
Pas de NOTAMs connus pour ce terrain.



MET'MAP, la Météo Aéronautique d'un coup d'oeil ! - Copyright ORBIFLY Décembre 2007 - Disclaimer

ORBIFLY MET'MAP TEAM :

Programmation & Développement : Alexandra Zaïnal
Conception & Développement : Baudouin d'Aumeries
Co-Programmation & Développement : Marc-Olivier Méhu
Soutien technique & logistique : Manuel Goepfert

Contact : metmap@orbifly.com




SOURCES & CREDITS :

   NOAA